Terminal Aerodrome Forecast
Issued by NWS

Home | Current Version | Previous Version | Text Only | Print | Product List | Glossary On
Versions: 1 2 3 4 5 6 7 8 9 10 11 12 13 14 15 16 17 18 19 20 21 22
000
FTUS41 KBOX 282333
TAFFMH
TAF
KFMH 282333Z 2900/2924 16008KT P6SM SKC
     FM290700 21006KT P6SM SCT120
     FM290900 22008KT P6SM BKN050
     FM291400 24010KT P6SM SCT080
     FM292000 28008KT P6SM FEW250
     FM292200 33007KT P6SM SCT070=

USA.gov is the U.S. government's official web portal to all federal, state and local government web resources and services.